Bookmark and Share
Track history (hours):
 

Ertholm

Last reported at 2014-Apr-16 10:33 UTC. Time now 2014-Apr-16 10:41 UTC.
Position N 55°19' E 015°11'.

Length 38 m; draft 2.3 m.

Type: Ship. MMSI: 219000751.

NotesDate/timePositionNaut miles runAvg speedWind from/ knotsBaromVisibWave heightAir tempDewpointWater temp
2014-Apr-16 10:33N 55°19' E 015°11'0 0.0
2014-Apr-16 09:33N 55°19' E 015°11'4 3.9
2014-Apr-16 08:34N 55°17' E 015°06'6 5.9
2014-Apr-16 07:34N 55°13' E 014°58'0 0.0
2014-Apr-16 06:33N 55°13' E 014°58'0 0.0
2014-Apr-16 05:34N 55°13' E 014°58'0 0.0
2014-Apr-16 04:33N 55°13' E 014°58'0 0.0
2014-Apr-16 03:34N 55°13' E 014°58'0 0.0
2014-Apr-16 02:34N 55°13' E 014°58'0 0.0
2014-Apr-16 01:33N 55°13' E 014°58'0 0.0
2014-Apr-16 00:33N 55°13' E 014°58'0 0.0
2014-Apr-15 23:34N 55°13' E 014°58'0 0.0
2014-Apr-15 22:34N 55°13' E 014°58'0 0.0
2014-Apr-15 21:33N 55°13' E 014°58'0 0.0
2014-Apr-15 20:33N 55°13' E 014°58'0 0.0
2014-Apr-15 19:33N 55°13' E 014°58'0 0.0
2014-Apr-15 18:33N 55°13' E 014°58'0 0.0
2014-Apr-15 17:33N 55°13' E 014°58'0 0.0
2014-Apr-15 16:33N 55°13' E 014°58'0 0.0
2014-Apr-15 15:33N 55°13' E 014°58'0 0.0
2014-Apr-15 14:34N 55°13' E 014°58'0 0.0
2014-Apr-15 12:34N 55°13' E 014°58'5 5.1
2014-Apr-15 11:34N 55°16' E 015°05'5 4.7
2014-Apr-15 10:34N 55°19' E 015°11'0 0.0
2014-Apr-15 09:34N 55°19' E 015°11'0 0.0
2014-Apr-15 08:34N 55°19' E 015°11'4 3.6
2014-Apr-15 07:34N 55°17' E 015°06'6 6.2
2014-Apr-15 06:33N 55°13' E 014°58'0 0.0
2014-Apr-15 05:34N 55°13' E 014°58'0 0.0
2014-Apr-15 03:34N 55°13' E 014°58'0 0.0
2014-Apr-15 02:33N 55°13' E 014°58'0 0.0
2014-Apr-15 01:33N 55°13' E 014°58'0 0.0
2014-Apr-15 00:34N 55°13' E 014°58'0 0.0
2014-Apr-14 23:34N 55°13' E 014°58'0 0.0
2014-Apr-14 22:34N 55°13' E 014°58'0 0.0
2014-Apr-14 21:34N 55°13' E 014°58'0 0.0
2014-Apr-14 20:34N 55°13' E 014°58'0 0.0
2014-Apr-14 19:34N 55°13' E 014°58'0 0.0
2014-Apr-14 18:34N 55°13' E 014°58'0 0.0
2014-Apr-14 16:34N 55°13' E 014°58'0 0.0
2014-Apr-14 15:33N 55°13' E 014°58'0 0.0
2014-Apr-14 14:33N 55°13' E 014°58'5 5.2
2014-Apr-14 13:34N 55°15' E 014°50'0 0.0
2014-Apr-14 11:34N 55°15' E 014°50'0 0.0
2014-Apr-14 10:33N 55°15' E 014°50'0 0.0
2014-Apr-14 09:33N 55°15' E 014°50'0 0.0
2014-Apr-14 08:34N 55°15' E 014°50'0 0.0
2014-Apr-14 07:34N 55°15' E 014°50'0 0.0
2014-Apr-14 06:34N 55°15' E 014°50'0 0.0
2014-Apr-14 05:33N 55°15' E 014°50'0 0.0
2014-Apr-13 22:34N 55°15' E 014°50'0 0.0
2014-Apr-13 21:33N 55°15' E 014°50'0 0.0
2014-Apr-13 20:33N 55°15' E 014°50'0 0.0
2014-Apr-13 19:33N 55°15' E 014°50'0 0.0
2014-Apr-13 18:34N 55°15' E 014°50'0 0.0
2014-Apr-13 17:34N 55°15' E 014°50'0 0.0
2014-Apr-13 16:34N 55°15' E 014°50'0 0.0
2014-Apr-13 15:34N 55°15' E 014°50'0 0.0
2014-Apr-13 14:33N 55°15' E 014°50'0 0.0
2014-Apr-13 13:29N 55°15' E 014°50'0 0.0
2014-Apr-13 12:34N 55°15' E 014°50'0 0.0
2014-Apr-13 11:33N 55°15' E 014°50'0 0.0
2014-Apr-13 10:34N 55°15' E 014°50'0 0.0
2014-Apr-13 09:34N 55°15' E 014°50'0 0.0
2014-Apr-13 08:33N 55°15' E 014°50'0 0.0
2014-Apr-13 07:33N 55°15' E 014°50'0 0.0
2014-Apr-13 06:34N 55°15' E 014°50'0 0.0
2014-Apr-13 05:34N 55°15' E 014°50'0 0.0
2014-Apr-13 04:34N 55°15' E 014°50'0 0.0
2014-Apr-13 03:33N 55°15' E 014°50'0 0.0
2014-Apr-13 02:34N 55°15' E 014°50'0 0.0
2014-Apr-13 01:34N 55°15' E 014°50'0 0.0
2014-Apr-13 00:34N 55°15' E 014°50'0 0.0
2014-Apr-12 23:34N 55°15' E 014°50'0 0.0
2014-Apr-12 22:33N 55°15' E 014°50'0 0.0
2014-Apr-12 21:33N 55°15' E 014°50'0 0.0
2014-Apr-12 20:30N 55°15' E 014°50'0 0.0
2014-Apr-12 19:34N 55°15' E 014°50'0 0.0
2014-Apr-12 18:34N 55°15' E 014°50'0 0.0
2014-Apr-12 17:33N 55°15' E 014°50'0 0.0
2014-Apr-12 16:33N 55°15' E 014°50'0 0.0
2014-Apr-12 15:34N 55°15' E 014°50'0 0.0
2014-Apr-12 14:34N 55°15' E 014°50'0 0.0
2014-Apr-12 13:33N 55°15' E 014°50'0 0.0
2014-Apr-12 12:34N 55°15' E 014°50'0 0.0
2014-Apr-12 11:32N 55°15' E 014°50'0 0.0
2014-Apr-12 10:33N 55°15' E 014°50'0 0.0
2014-Apr-12 09:33N 55°15' E 014°50'0 0.0
2014-Apr-12 08:33N 55°15' E 014°50'0 0.0
2014-Apr-12 07:34N 55°15' E 014°50'0 0.0
2014-Apr-12 06:33N 55°15' E 014°50'0 0.0
2014-Apr-12 05:34N 55°15' E 014°50'0 0.0
2014-Apr-12 04:33N 55°15' E 014°50'0 0.0
2014-Apr-12 03:31N 55°15' E 014°50'0 0.0
2014-Apr-12 02:34N 55°15' E 014°50'0 0.0
2014-Apr-12 01:33N 55°15' E 014°50'0 0.0
2014-Apr-12 00:32N 55°15' E 014°50'0 0.0
2014-Apr-11 23:34N 55°15' E 014°50'0 0.0
2014-Apr-11 22:33N 55°15' E 014°50'0 0.0
2014-Apr-11 21:34N 55°15' E 014°50'0 0.0
2014-Apr-11 20:33N 55°15' E 014°50'0 0.0
2014-Apr-11 19:34N 55°15' E 014°50'0 0.0
2014-Apr-11 18:33N 55°15' E 014°50'0 0.0
2014-Apr-11 17:33N 55°15' E 014°50'0 0.0
2014-Apr-11 16:33N 55°15' E 014°50'0 0.0
2014-Apr-11 15:33N 55°15' E 014°50'0 0.0
2014-Apr-11 14:33N 55°15' E 014°50'0 0.0
2014-Apr-11 13:34N 55°15' E 014°50'0 0.0
2014-Apr-11 12:33N 55°15' E 014°50'1 1.4
2014-Apr-11 11:33N 55°15' E 014°53'1 1.4
2014-Apr-11 10:33N 55°15' E 014°50'0 0.0
2014-Apr-11 09:32N 55°15' E 014°50'0 0.0
2014-Apr-11 08:33N 55°15' E 014°50'0 0.0
2014-Apr-11 07:33N 55°15' E 014°50'0 0.0
2014-Apr-11 06:33N 55°15' E 014°50'0 0.0
2014-Apr-11 04:29N 55°15' E 014°50'0 0.0
2014-Apr-11 03:32N 55°15' E 014°50'0 0.0
2014-Apr-11 02:28N 55°15' E 014°50'0 0.0
2014-Apr-11 01:33N 55°15' E 014°50'0 0.0
2014-Apr-11 00:31N 55°15' E 014°50'0 0.0
2014-Apr-10 23:31N 55°15' E 014°50'0 0.0
2014-Apr-10 22:33N 55°15' E 014°50'0 0.0
2014-Apr-10 21:32N 55°15' E 014°50'0 0.0
2014-Apr-10 20:33N 55°15' E 014°50'0 0.0
2014-Apr-10 19:30N 55°15' E 014°50'0 0.0
2014-Apr-10 18:33N 55°15' E 014°50'0 0.0
2014-Apr-10 17:33N 55°15' E 014°50'0 0.0
2014-Apr-10 16:33N 55°15' E 014°50'0 0.0
2014-Apr-10 15:33N 55°15' E 014°50'0 0.0
2014-Apr-10 14:33N 55°15' E 014°50'0 0.0
2014-Apr-10 13:33N 55°15' E 014°50'0 0.0
2014-Apr-10 12:33N 55°15' E 014°50'0 0.0
2014-Apr-10 11:33N 55°15' E 014°50'0 0.0
2014-Apr-10 10:33N 55°15' E 014°50'0 0.0
2014-Apr-10 09:33N 55°15' E 014°50'0 0.0
2014-Apr-10 08:33N 55°15' E 014°50'0 0.0
2014-Apr-10 07:33N 55°15' E 014°50'0 0.0
2014-Apr-10 06:33N 55°15' E 014°50'0 0.0
2014-Apr-10 05:33N 55°15' E 014°50'0 0.0
2014-Apr-10 04:33N 55°15' E 014°50'0 0.0
2014-Apr-10 03:33N 55°15' E 014°50'0 0.0
2014-Apr-10 02:33N 55°15' E 014°50'0 0.0
2014-Apr-10 01:33N 55°15' E 014°50'0 0.0
2014-Apr-10 00:33N 55°15' E 014°50'0 0.0
2014-Apr-09 23:33N 55°15' E 014°50'0 0.0
2014-Apr-09 22:33N 55°15' E 014°50'0 0.0
2014-Apr-09 21:33N 55°15' E 014°50'0 0.0
2014-Apr-09 20:33N 55°15' E 014°50'0 0.0
2014-Apr-09 19:33N 55°15' E 014°50'0 0.0
2014-Apr-09 18:33N 55°15' E 014°50'0 0.0
2014-Apr-09 17:33N 55°15' E 014°50'0 0.0
2014-Apr-09 16:33N 55°15' E 014°50'0 0.0
2014-Apr-09 15:32N 55°15' E 014°50'0 0.0
2014-Apr-09 14:33N 55°15' E 014°50'0 0.0
2014-Apr-09 13:32N 55°15' E 014°50'0 0.0
2014-Apr-09 12:31N 55°15' E 014°50'0 0.0
2014-Apr-09 11:33N 55°15' E 014°50'0 0.0
2014-Apr-09 10:33N 55°15' E 014°50'0 0.0
2014-Apr-09 09:29N 55°15' E 014°50'0 0.0
2014-Apr-09 08:33N 55°15' E 014°50'0 0.0
2014-Apr-09 07:33N 55°15' E 014°50'0 0.0
2014-Apr-09 06:27N 55°15' E 014°50'0 0.0
2014-Apr-09 05:33N 55°15' E 014°50'0 0.0
2014-Apr-09 04:33N 55°15' E 014°50'0 0.0
2014-Apr-09 03:33N 55°15' E 014°50'0 0.0
2014-Apr-09 02:33N 55°15' E 014°50'0 0.0
2014-Apr-09 01:33N 55°15' E 014°50'0 0.0
2014-Apr-09 00:33N 55°15' E 014°50'0 0.0
2014-Apr-08 23:33N 55°15' E 014°50'0 0.0
2014-Apr-08 22:33N 55°15' E 014°50'0 0.0
2014-Apr-08 21:33N 55°15' E 014°50'0 0.0
2014-Apr-08 20:33N 55°15' E 014°50'0 0.0
2014-Apr-08 19:33N 55°15' E 014°50'0 0.0
2014-Apr-08 18:33N 55°15' E 014°50'0 0.0
2014-Apr-08 17:33N 55°15' E 014°50'0 0.0
2014-Apr-08 16:33N 55°15' E 014°50'0 0.0
2014-Apr-08 15:33N 55°15' E 014°50'0 0.0
2014-Apr-08 14:33N 55°15' E 014°50'0 0.0
2014-Apr-08 13:33N 55°15' E 014°50'0 0.0
2014-Apr-08 12:33N 55°15' E 014°50'0 0.0
2014-Apr-08 11:33N 55°15' E 014°50'0 0.0
2014-Apr-08 10:33N 55°15' E 014°50'0 0.0
2014-Apr-08 09:33N 55°15' E 014°50'0 0.0
2014-Apr-08 08:33N 55°15' E 014°50'0 0.0
2014-Apr-08 07:33N 55°15' E 014°50'0 0.0
2014-Apr-08 06:33N 55°15' E 014°50'0 0.0
2014-Apr-08 05:33N 55°15' E 014°50'0 0.0
2014-Apr-08 04:33N 55°15' E 014°50'0 0.0
2014-Apr-08 03:33N 55°15' E 014°50'0 0.0
2014-Apr-08 02:33N 55°15' E 014°50'0 0.0
2014-Apr-08 01:33N 55°15' E 014°50'0 0.0
2014-Apr-08 00:33N 55°15' E 014°50'0 0.0
2014-Apr-07 23:33N 55°15' E 014°50'0 0.0
2014-Apr-07 22:33N 55°15' E 014°50'0 0.0
2014-Apr-07 21:33N 55°15' E 014°50'0 0.0
2014-Apr-07 20:33N 55°15' E 014°50'0 0.0
2014-Apr-07 19:33N 55°15' E 014°50'0 0.0
2014-Apr-07 17:33N 55°15' E 014°50'0 0.0
2014-Apr-07 16:33N 55°15' E 014°50'0 0.0
2014-Apr-07 15:33N 55°15' E 014°50'0 0.0
2014-Apr-07 14:33N 55°15' E 014°50'0 0.0
2014-Apr-07 13:33N 55°15' E 014°50'0 0.0
2014-Apr-07 12:33N 55°15' E 014°50'0 0.0
2014-Apr-07 11:33N 55°15' E 014°50'0 0.0
2014-Apr-07 10:33N 55°15' E 014°50'0 0.0
2014-Apr-07 09:33N 55°15' E 014°50'0 0.0
2014-Apr-07 08:33N 55°15' E 014°50'0 0.0
2014-Apr-07 07:33N 55°15' E 014°50'0 0.0
2014-Apr-07 06:33N 55°15' E 014°50'0 0.0
2014-Apr-07 05:33N 55°15' E 014°50'0 0.0
2014-Apr-07 04:33N 55°15' E 014°50'0 0.0
2014-Apr-07 03:33N 55°15' E 014°50'0 0.0
2014-Apr-07 02:33N 55°15' E 014°50'0 0.0
2014-Apr-07 01:33N 55°15' E 014°50'0 0.0
2014-Apr-07 00:33N 55°15' E 014°50'0 0.0
2014-Apr-06 23:33N 55°15' E 014°50'0 0.0
2014-Apr-06 22:33N 55°15' E 014°50'0 0.0
2014-Apr-06 21:33N 55°15' E 014°50'0 0.0
2014-Apr-06 20:33N 55°15' E 014°50'0 0.0
2014-Apr-06 19:33N 55°15' E 014°50'0 0.0
2014-Apr-06 18:33N 55°15' E 014°50'0 0.0
2014-Apr-06 17:33N 55°15' E 014°50'0 0.0
2014-Apr-06 16:33N 55°15' E 014°50'0 0.0
2014-Apr-06 15:33N 55°15' E 014°50'0 0.0
2014-Apr-06 14:33N 55°15' E 014°50'0 0.0
2014-Apr-06 13:33N 55°15' E 014°50'0 0.0
2014-Apr-06 12:33N 55°15' E 014°50'0 0.0
2014-Apr-06 11:33N 55°15' E 014°50'  

Dump ship's entire track history

sailing weather and tide predictions

Ertholm — OVJX — position and weather